sensor_id;sensor_type;location;lat;lon;timestamp;P1;durP1;ratioP1;P2;durP2;ratioP2
24650;SDS011;12783;48.824;8.662;2023-05-16T00:01:08;22.42;;;15.38;;
24650;SDS011;12783;48.824;8.662;2023-05-16T00:03:35;22.95;;;15.63;;
24650;SDS011;12783;48.824;8.662;2023-05-16T00:06:03;24.92;;;17.95;;
24650;SDS011;12783;48.824;8.662;2023-05-16T00:08:31;24.65;;;17.88;;
24650;SDS011;12783;48.824;8.662;2023-05-16T00:14:16;27.23;;;18.70;;
24650;SDS011;12783;48.824;8.662;2023-05-16T00:16:44;27.42;;;17.40;;
24650;SDS011;12783;48.824;8.662;2023-05-16T00:19:12;29.35;;;19.52;;
24650;SDS011;12783;48.824;8.662;2023-05-16T00:21:39;25.08;;;18.30;;
24650;SDS011;12783;48.824;8.662;2023-05-16T00:24:06;33.58;;;20.23;;
24650;SDS011;12783;48.824;8.662;2023-05-16T00:26:33;30.63;;;20.10;;
24650;SDS011;12783;48.824;8.662;2023-05-16T00:29:00;31.58;;;21.20;;
24650;SDS011;12783;48.824;8.662;2023-05-16T00:31:27;35.15;;;20.27;;
24650;SDS011;12783;48.824;8.662;2023-05-16T00:33:54;33.72;;;21.50;;
24650;SDS011;12783;48.824;8.662;2023-05-16T00:36:21;35.05;;;21.65;;
24650;SDS011;12783;48.824;8.662;2023-05-16T00:38:49;37.78;;;22.00;;
24650;SDS011;12783;48.824;8.662;2023-05-16T00:41:16;39.22;;;24.10;;
24650;SDS011;12783;48.824;8.662;2023-05-16T00:43:43;37.40;;;24.27;;
24650;SDS011;12783;48.824;8.662;2023-05-16T00:46:10;38.80;;;24.67;;
24650;SDS011;12783;48.824;8.662;2023-05-16T00:48:37;40.17;;;24.75;;
24650;SDS011;12783;48.824;8.662;2023-05-16T00:51:04;42.70;;;23.65;;
24650;SDS011;12783;48.824;8.662;2023-05-16T00:53:34;38.83;;;23.73;;
24650;SDS011;12783;48.824;8.662;2023-05-16T00:56:02;39.25;;;23.88;;
24650;SDS011;12783;48.824;8.662;2023-05-16T00:58:31;37.70;;;23.70;;
24650;SDS011;12783;48.824;8.662;2023-05-16T01:00:59;46.13;;;25.70;;
24650;SDS011;12783;48.824;8.662;2023-05-16T01:03:29;39.25;;;25.20;;
24650;SDS011;12783;48.824;8.662;2023-05-16T01:05:57;45.08;;;26.50;;
24650;SDS011;12783;48.824;8.662;2023-05-16T01:08:24;44.00;;;25.98;;
24650;SDS011;12783;48.824;8.662;2023-05-16T01:10:57;44.17;;;27.58;;
24650;SDS011;12783;48.824;8.662;2023-05-16T01:16:25;47.20;;;27.27;;
24650;SDS011;12783;48.824;8.662;2023-05-16T01:19:13;44.80;;;27.52;;
24650;SDS011;12783;48.824;8.662;2023-05-16T01:22:05;44.22;;;27.00;;
24650;SDS011;12783;48.824;8.662;2023-05-16T01:25:04;47.00;;;27.30;;
24650;SDS011;12783;48.824;8.662;2023-05-16T01:28:09;52.35;;;27.90;;
24650;SDS011;12783;48.824;8.662;2023-05-16T01:30:39;51.25;;;29.80;;
24650;SDS011;12783;48.824;8.662;2023-05-16T01:33:07;59.35;;;29.70;;
24650;SDS011;12783;48.824;8.662;2023-05-16T01:36:19;57.80;;;31.25;;
24650;SDS011;12783;48.824;8.662;2023-05-16T01:38:29;67.50;;;33.05;;
24650;SDS011;12783;48.824;8.662;2023-05-16T01:44:01;66.05;;;33.58;;
24650;SDS011;12783;48.824;8.662;2023-05-16T01:46:37;66.63;;;35.33;;
24650;SDS011;12783;48.824;8.662;2023-05-16T01:49:14;57.90;;;31.75;;
24650;SDS011;12783;48.824;8.662;2023-05-16T01:52:00;59.63;;;32.90;;
24650;SDS011;12783;48.824;8.662;2023-05-16T01:54:39;64.20;;;33.50;;
24650;SDS011;12783;48.824;8.662;2023-05-16T01:57:10;68.10;;;34.72;;
24650;SDS011;12783;48.824;8.662;2023-05-16T01:59:39;64.80;;;33.63;;
24650;SDS011;12783;48.824;8.662;2023-05-16T02:02:08;67.38;;;35.38;;
24650;SDS011;12783;48.824;8.662;2023-05-16T02:04:35;74.53;;;35.88;;
24650;SDS011;12783;48.824;8.662;2023-05-16T02:07:02;71.57;;;37.10;;
24650;SDS011;12783;48.824;8.662;2023-05-16T02:09:29;74.05;;;35.70;;
24650;SDS011;12783;48.824;8.662;2023-05-16T02:11:55;70.55;;;35.38;;
24650;SDS011;12783;48.824;8.662;2023-05-16T02:14:23;80.57;;;37.80;;
24650;SDS011;12783;48.824;8.662;2023-05-16T02:16:51;80.10;;;38.13;;
24650;SDS011;12783;48.824;8.662;2023-05-16T02:19:18;79.30;;;37.65;;
24650;SDS011;12783;48.824;8.662;2023-05-16T02:21:45;79.97;;;39.67;;
24650;SDS011;12783;48.824;8.662;2023-05-16T02:24:12;81.43;;;40.00;;
24650;SDS011;12783;48.824;8.662;2023-05-16T02:26:38;91.90;;;42.28;;
24650;SDS011;12783;48.824;8.662;2023-05-16T02:29:05;94.25;;;41.28;;
24650;SDS011;12783;48.824;8.662;2023-05-16T02:31:32;89.22;;;40.45;;
24650;SDS011;12783;48.824;8.662;2023-05-16T02:34:02;86.85;;;40.92;;
24650;SDS011;12783;48.824;8.662;2023-05-16T02:36:29;88.97;;;41.70;;
24650;SDS011;12783;48.824;8.662;2023-05-16T02:38:57;107.82;;;45.38;;
24650;SDS011;12783;48.824;8.662;2023-05-16T02:41:24;96.78;;;42.88;;
24650;SDS011;12783;48.824;8.662;2023-05-16T02:43:51;98.18;;;43.55;;
24650;SDS011;12783;48.824;8.662;2023-05-16T02:46:36;95.00;;;44.53;;
24650;SDS011;12783;48.824;8.662;2023-05-16T02:49:03;94.55;;;42.45;;
24650;SDS011;12783;48.824;8.662;2023-05-16T02:51:30;99.95;;;43.65;;
24650;SDS011;12783;48.824;8.662;2023-05-16T02:53:57;97.15;;;44.08;;
24650;SDS011;12783;48.824;8.662;2023-05-16T02:56:25;104.68;;;45.40;;
24650;SDS011;12783;48.824;8.662;2023-05-16T02:58:53;112.40;;;46.40;;
24650;SDS011;12783;48.824;8.662;2023-05-16T03:01:21;112.57;;;46.20;;
24650;SDS011;12783;48.824;8.662;2023-05-16T03:03:48;116.38;;;47.92;;
24650;SDS011;12783;48.824;8.662;2023-05-16T03:06:16;108.90;;;45.75;;
24650;SDS011;12783;48.824;8.662;2023-05-16T03:08:43;116.32;;;46.40;;
24650;SDS011;12783;48.824;8.662;2023-05-16T03:11:10;123.65;;;48.95;;
24650;SDS011;12783;48.824;8.662;2023-05-16T03:13:37;140.52;;;50.55;;
24650;SDS011;12783;48.824;8.662;2023-05-16T03:16:04;121.45;;;47.97;;
24650;SDS011;12783;48.824;8.662;2023-05-16T03:18:31;134.63;;;50.35;;
24650;SDS011;12783;48.824;8.662;2023-05-16T03:20:58;145.00;;;51.58;;
24650;SDS011;12783;48.824;8.662;2023-05-16T03:23:26;134.50;;;49.28;;
24650;SDS011;12783;48.824;8.662;2023-05-16T03:25:53;142.43;;;50.72;;
24650;SDS011;12783;48.824;8.662;2023-05-16T03:28:21;156.13;;;50.47;;
24650;SDS011;12783;48.824;8.662;2023-05-16T03:30:48;142.88;;;50.10;;
24650;SDS011;12783;48.824;8.662;2023-05-16T03:33:15;173.85;;;51.80;;
24650;SDS011;12783;48.824;8.662;2023-05-16T03:35:42;176.45;;;54.05;;
24650;SDS011;12783;48.824;8.662;2023-05-16T03:38:09;205.80;;;52.38;;
24650;SDS011;12783;48.824;8.662;2023-05-16T03:40:36;213.52;;;52.95;;
24650;SDS011;12783;48.824;8.662;2023-05-16T03:43:03;295.50;;;56.50;;
24650;SDS011;12783;48.824;8.662;2023-05-16T03:45:30;255.80;;;53.33;;
24650;SDS011;12783;48.824;8.662;2023-05-16T03:47:57;623.85;;;59.58;;
24650;SDS011;12783;48.824;8.662;2023-05-16T03:50:25;272.10;;;52.95;;
24650;SDS011;12783;48.824;8.662;2023-05-16T03:52:52;733.53;;;66.72;;
24650;SDS011;12783;48.824;8.662;2023-05-16T03:55:19;351.30;;;56.85;;
24650;SDS011;12783;48.824;8.662;2023-05-16T03:57:46;979.17;;;66.82;;
24650;SDS011;12783;48.824;8.662;2023-05-16T04:00:15;1172.82;;;80.55;;
24650;SDS011;12783;48.824;8.662;2023-05-16T04:02:43;1469.22;;;87.18;;
24650;SDS011;12783;48.824;8.662;2023-05-16T04:05:10;1647.30;;;95.00;;
24650;SDS011;12783;48.824;8.662;2023-05-16T04:07:39;1303.28;;;84.40;;
24650;SDS011;12783;48.824;8.662;2023-05-16T04:10:06;1755.82;;;95.43;;
24650;SDS011;12783;48.824;8.662;2023-05-16T04:12:34;1950.30;;;96.28;;
24650;SDS011;12783;48.824;8.662;2023-05-16T04:15:02;1717.35;;;90.53;;
24650;SDS011;12783;48.824;8.662;2023-05-16T04:17:31;1321.38;;;77.65;;
24650;SDS011;12783;48.824;8.662;2023-05-16T04:19:58;1466.28;;;87.75;;
24650;SDS011;12783;48.824;8.662;2023-05-16T04:22:26;1998.15;;;104.13;;
24650;SDS011;12783;48.824;8.662;2023-05-16T04:24:53;1613.72;;;87.05;;
24650;SDS011;12783;48.824;8.662;2023-05-16T04:27:19;1705.45;;;85.15;;
24650;SDS011;12783;48.824;8.662;2023-05-16T04:29:46;1999.90;;;94.45;;
24650;SDS011;12783;48.824;8.662;2023-05-16T04:32:13;1999.90;;;96.85;;
24650;SDS011;12783;48.824;8.662;2023-05-16T04:34:40;1999.90;;;106.03;;
24650;SDS011;12783;48.824;8.662;2023-05-16T04:37:08;1999.90;;;95.30;;
24650;SDS011;12783;48.824;8.662;2023-05-16T04:39:36;1562.22;;;83.65;;
24650;SDS011;12783;48.824;8.662;2023-05-16T04:42:03;1999.90;;;100.90;;
24650;SDS011;12783;48.824;8.662;2023-05-16T04:44:31;1784.97;;;83.88;;
24650;SDS011;12783;48.824;8.662;2023-05-16T04:46:57;1999.90;;;101.30;;
24650;SDS011;12783;48.824;8.662;2023-05-16T04:49:24;1594.50;;;76.60;;
24650;SDS011;12783;48.824;8.662;2023-05-16T04:51:51;1943.15;;;89.65;;
24650;SDS011;12783;48.824;8.662;2023-05-16T04:54:18;1819.47;;;86.82;;
24650;SDS011;12783;48.824;8.662;2023-05-16T04:56:45;926.97;;;58.05;;
24650;SDS011;12783;48.824;8.662;2023-05-16T04:59:12;963.17;;;63.95;;
24650;SDS011;12783;48.824;8.662;2023-05-16T05:01:39;1354.50;;;65.43;;
24650;SDS011;12783;48.824;8.662;2023-05-16T05:04:06;1005.83;;;57.65;;
24650;SDS011;12783;48.824;8.662;2023-05-16T05:06:33;1170.88;;;61.20;;
24650;SDS011;12783;48.824;8.662;2023-05-16T05:09:00;1698.75;;;76.13;;
24650;SDS011;12783;48.824;8.662;2023-05-16T05:11:26;1509.10;;;70.82;;
24650;SDS011;12783;48.824;8.662;2023-05-16T05:13:53;1411.57;;;60.53;;
24650;SDS011;12783;48.824;8.662;2023-05-16T05:16:20;1999.90;;;88.82;;
24650;SDS011;12783;48.824;8.662;2023-05-16T05:18:47;1999.90;;;95.82;;
24650;SDS011;12783;48.824;8.662;2023-05-16T05:21:14;1999.90;;;87.68;;
24650;SDS011;12783;48.824;8.662;2023-05-16T05:23:41;1999.90;;;98.40;;
24650;SDS011;12783;48.824;8.662;2023-05-16T05:26:08;1752.55;;;75.40;;
24650;SDS011;12783;48.824;8.662;2023-05-16T05:28:35;1999.90;;;109.07;;
24650;SDS011;12783;48.824;8.662;2023-05-16T05:31:03;1999.90;;;118.20;;
24650;SDS011;12783;48.824;8.662;2023-05-16T05:33:30;1999.90;;;99.45;;
24650;SDS011;12783;48.824;8.662;2023-05-16T05:35:57;1999.90;;;98.22;;
24650;SDS011;12783;48.824;8.662;2023-05-16T05:38:24;1999.90;;;91.18;;
24650;SDS011;12783;48.824;8.662;2023-05-16T05:40:51;1999.90;;;84.18;;
24650;SDS011;12783;48.824;8.662;2023-05-16T05:43:18;1999.90;;;85.00;;
24650;SDS011;12783;48.824;8.662;2023-05-16T05:45:45;1999.90;;;71.32;;
24650;SDS011;12783;48.824;8.662;2023-05-16T05:48:12;1999.90;;;70.97;;
24650;SDS011;12783;48.824;8.662;2023-05-16T05:50:39;1999.90;;;74.50;;
24650;SDS011;12783;48.824;8.662;2023-05-16T05:53:06;1999.90;;;68.55;;
24650;SDS011;12783;48.824;8.662;2023-05-16T05:55:33;1655.68;;;53.65;;
24650;SDS011;12783;48.824;8.662;2023-05-16T05:58:00;1400.95;;;47.50;;
24650;SDS011;12783;48.824;8.662;2023-05-16T06:00:30;1071.57;;;39.70;;
24650;SDS011;12783;48.824;8.662;2023-05-16T06:02:57;360.65;;;18.90;;
24650;SDS011;12783;48.824;8.662;2023-05-16T06:05:24;62.80;;;10.98;;
24650;SDS011;12783;48.824;8.662;2023-05-16T06:07:52;71.97;;;10.05;;
24650;SDS011;12783;48.824;8.662;2023-05-16T06:10:18;55.92;;;8.15;;
24650;SDS011;12783;48.824;8.662;2023-05-16T06:12:45;97.38;;;11.25;;
24650;SDS011;12783;48.824;8.662;2023-05-16T06:15:12;128.13;;;11.23;;
24650;SDS011;12783;48.824;8.662;2023-05-16T06:17:39;91.78;;;9.70;;
24650;SDS011;12783;48.824;8.662;2023-05-16T06:20:07;55.85;;;8.75;;
24650;SDS011;12783;48.824;8.662;2023-05-16T06:22:34;115.40;;;8.93;;
24650;SDS011;12783;48.824;8.662;2023-05-16T06:25:01;220.45;;;12.05;;
24650;SDS011;12783;48.824;8.662;2023-05-16T06:27:28;115.20;;;9.70;;
24650;SDS011;12783;48.824;8.662;2023-05-16T06:29:55;109.13;;;11.98;;
24650;SDS011;12783;48.824;8.662;2023-05-16T06:32:22;70.45;;;11.20;;
24650;SDS011;12783;48.824;8.662;2023-05-16T06:34:49;87.57;;;11.65;;
24650;SDS011;12783;48.824;8.662;2023-05-16T06:37:16;124.65;;;14.07;;
24650;SDS011;12783;48.824;8.662;2023-05-16T06:39:43;82.28;;;11.80;;
24650;SDS011;12783;48.824;8.662;2023-05-16T06:42:10;127.55;;;13.63;;
24650;SDS011;12783;48.824;8.662;2023-05-16T06:44:38;110.10;;;13.07;;
24650;SDS011;12783;48.824;8.662;2023-05-16T06:47:05;163.13;;;16.15;;
24650;SDS011;12783;48.824;8.662;2023-05-16T06:49:33;399.50;;;21.63;;
24650;SDS011;12783;48.824;8.662;2023-05-16T06:52:01;592.25;;;24.50;;
24650;SDS011;12783;48.824;8.662;2023-05-16T06:54:28;502.40;;;25.15;;
24650;SDS011;12783;48.824;8.662;2023-05-16T06:56:55;888.03;;;35.95;;
24650;SDS011;12783;48.824;8.662;2023-05-16T06:59:22;820.08;;;36.60;;
24650;SDS011;12783;48.824;8.662;2023-05-16T07:01:50;889.60;;;39.53;;
24650;SDS011;12783;48.824;8.662;2023-05-16T07:04:18;919.25;;;39.17;;
24650;SDS011;12783;48.824;8.662;2023-05-16T07:06:44;1026.18;;;41.28;;
24650;SDS011;12783;48.824;8.662;2023-05-16T07:09:11;1311.43;;;51.65;;
24650;SDS011;12783;48.824;8.662;2023-05-16T07:11:39;1269.85;;;43.72;;
24650;SDS011;12783;48.824;8.662;2023-05-16T07:14:06;1292.88;;;53.13;;
24650;SDS011;12783;48.824;8.662;2023-05-16T07:16:33;1475.43;;;56.28;;
24650;SDS011;12783;48.824;8.662;2023-05-16T07:19:00;1521.05;;;61.63;;
24650;SDS011;12783;48.824;8.662;2023-05-16T07:21:27;1869.30;;;69.22;;
24650;SDS011;12783;48.824;8.662;2023-05-16T07:23:54;1853.13;;;67.75;;
24650;SDS011;12783;48.824;8.662;2023-05-16T07:26:21;1697.65;;;70.05;;
24650;SDS011;12783;48.824;8.662;2023-05-16T07:28:49;1999.90;;;77.20;;
24650;SDS011;12783;48.824;8.662;2023-05-16T07:31:16;1771.22;;;71.95;;
24650;SDS011;12783;48.824;8.662;2023-05-16T07:33:44;1692.55;;;64.95;;
24650;SDS011;12783;48.824;8.662;2023-05-16T07:36:12;1743.32;;;65.03;;
24650;SDS011;12783;48.824;8.662;2023-05-16T07:38:42;1724.40;;;62.30;;
24650;SDS011;12783;48.824;8.662;2023-05-16T07:41:10;1665.72;;;55.63;;
24650;SDS011;12783;48.824;8.662;2023-05-16T07:43:37;1464.32;;;52.03;;
24650;SDS011;12783;48.824;8.662;2023-05-16T07:46:04;1999.90;;;71.25;;
24650;SDS011;12783;48.824;8.662;2023-05-16T07:48:31;1999.90;;;67.25;;
24650;SDS011;12783;48.824;8.662;2023-05-16T07:50:58;1999.90;;;70.13;;
24650;SDS011;12783;48.824;8.662;2023-05-16T07:53:25;1999.90;;;70.18;;
24650;SDS011;12783;48.824;8.662;2023-05-16T07:55:52;1999.90;;;74.60;;
24650;SDS011;12783;48.824;8.662;2023-05-16T07:58:19;1999.90;;;72.05;;
24650;SDS011;12783;48.824;8.662;2023-05-16T08:00:46;1999.90;;;85.43;;
24650;SDS011;12783;48.824;8.662;2023-05-16T08:03:13;1981.40;;;69.85;;
24650;SDS011;12783;48.824;8.662;2023-05-16T08:05:41;1999.90;;;74.43;;
24650;SDS011;12783;48.824;8.662;2023-05-16T08:08:08;1999.90;;;77.78;;
24650;SDS011;12783;48.824;8.662;2023-05-16T08:10:35;1772.93;;;66.47;;
24650;SDS011;12783;48.824;8.662;2023-05-16T08:13:02;1938.10;;;75.25;;
24650;SDS011;12783;48.824;8.662;2023-05-16T08:15:29;1999.90;;;70.82;;
24650;SDS011;12783;48.824;8.662;2023-05-16T08:17:57;1999.90;;;74.20;;
24650;SDS011;12783;48.824;8.662;2023-05-16T08:20:24;1892.40;;;69.97;;
24650;SDS011;12783;48.824;8.662;2023-05-16T08:22:52;1984.03;;;73.47;;
24650;SDS011;12783;48.824;8.662;2023-05-16T08:25:22;1636.50;;;62.15;;
24650;SDS011;12783;48.824;8.662;2023-05-16T08:27:50;1982.53;;;77.28;;
24650;SDS011;12783;48.824;8.662;2023-05-16T08:30:17;1943.38;;;66.05;;
24650;SDS011;12783;48.824;8.662;2023-05-16T08:32:44;1999.90;;;79.90;;
24650;SDS011;12783;48.824;8.662;2023-05-16T08:35:11;1999.90;;;77.88;;
24650;SDS011;12783;48.824;8.662;2023-05-16T08:37:38;1385.20;;;65.15;;
24650;SDS011;12783;48.824;8.662;2023-05-16T08:40:05;1360.78;;;64.00;;
24650;SDS011;12783;48.824;8.662;2023-05-16T08:42:35;1999.90;;;72.05;;
24650;SDS011;12783;48.824;8.662;2023-05-16T08:45:03;1863.78;;;68.65;;
24650;SDS011;12783;48.824;8.662;2023-05-16T08:47:32;1720.85;;;61.75;;
24650;SDS011;12783;48.824;8.662;2023-05-16T08:50:02;1292.72;;;59.20;;
24650;SDS011;12783;48.824;8.662;2023-05-16T08:52:30;1263.45;;;60.80;;
24650;SDS011;12783;48.824;8.662;2023-05-16T08:55:02;1337.97;;;62.38;;
24650;SDS011;12783;48.824;8.662;2023-05-16T08:57:37;819.90;;;48.33;;
24650;SDS011;12783;48.824;8.662;2023-05-16T09:00:08;910.00;;;54.30;;
24650;SDS011;12783;48.824;8.662;2023-05-16T09:02:39;1183.20;;;60.43;;
24650;SDS011;12783;48.824;8.662;2023-05-16T09:05:09;1035.07;;;56.58;;
24650;SDS011;12783;48.824;8.662;2023-05-16T09:07:39;1395.25;;;65.68;;
24650;SDS011;12783;48.824;8.662;2023-05-16T09:10:07;1396.70;;;63.75;;
24650;SDS011;12783;48.824;8.662;2023-05-16T09:12:35;1356.40;;;62.50;;
24650;SDS011;12783;48.824;8.662;2023-05-16T09:15:04;1750.47;;;66.38;;
24650;SDS011;12783;48.824;8.662;2023-05-16T09:17:51;1058.63;;;54.72;;
24650;SDS011;12783;48.824;8.662;2023-05-16T09:20:19;1999.90;;;87.20;;
24650;SDS011;12783;48.824;8.662;2023-05-16T09:22:53;1551.45;;;66.45;;
24650;SDS011;12783;48.824;8.662;2023-05-16T09:25:22;1971.82;;;72.15;;
24650;SDS011;12783;48.824;8.662;2023-05-16T09:27:58;948.15;;;50.50;;
24650;SDS011;12783;48.824;8.662;2023-05-16T09:30:29;1108.55;;;55.85;;
24650;SDS011;12783;48.824;8.662;2023-05-16T09:33:00;831.50;;;47.58;;
24650;SDS011;12783;48.824;8.662;2023-05-16T09:35:28;1351.55;;;67.15;;
24650;SDS011;12783;48.824;8.662;2023-05-16T09:38:14;248.90;;;30.42;;
24650;SDS011;12783;48.824;8.662;2023-05-16T09:40:43;163.98;;;28.63;;
24650;SDS011;12783;48.824;8.662;2023-05-16T09:43:11;276.83;;;34.17;;
24650;SDS011;12783;48.824;8.662;2023-05-16T09:45:46;182.20;;;29.30;;
24650;SDS011;12783;48.824;8.662;2023-05-16T09:48:14;122.28;;;28.58;;
24650;SDS011;12783;48.824;8.662;2023-05-16T09:50:51;346.88;;;34.38;;
24650;SDS011;12783;48.824;8.662;2023-05-16T09:53:26;605.25;;;42.70;;
24650;SDS011;12783;48.824;8.662;2023-05-16T09:56:02;864.78;;;44.95;;
24650;SDS011;12783;48.824;8.662;2023-05-16T09:58:33;793.58;;;42.17;;
24650;SDS011;12783;48.824;8.662;2023-05-16T10:01:03;887.35;;;45.55;;
24650;SDS011;12783;48.824;8.662;2023-05-16T10:03:32;1203.88;;;51.00;;
24650;SDS011;12783;48.824;8.662;2023-05-16T10:06:03;290.77;;;21.27;;
24650;SDS011;12783;48.824;8.662;2023-05-16T10:08:33;64.18;;;18.98;;
24650;SDS011;12783;48.824;8.662;2023-05-16T10:11:02;38.80;;;12.88;;
24650;SDS011;12783;48.824;8.662;2023-05-16T10:13:32;47.28;;;12.32;;
24650;SDS011;12783;48.824;8.662;2023-05-16T10:16:06;44.78;;;12.48;;
24650;SDS011;12783;48.824;8.662;2023-05-16T10:18:37;53.15;;;13.48;;
24650;SDS011;12783;48.824;8.662;2023-05-16T10:21:07;32.72;;;12.18;;
24650;SDS011;12783;48.824;8.662;2023-05-16T10:23:40;38.30;;;12.18;;
24650;SDS011;12783;48.824;8.662;2023-05-16T10:26:09;34.30;;;11.98;;
24650;SDS011;12783;48.824;8.662;2023-05-16T10:28:39;33.85;;;10.52;;
24650;SDS011;12783;48.824;8.662;2023-05-16T10:31:07;31.25;;;10.32;;
24650;SDS011;12783;48.824;8.662;2023-05-16T10:33:37;37.28;;;11.25;;
24650;SDS011;12783;48.824;8.662;2023-05-16T10:36:05;24.48;;;9.32;;
24650;SDS011;12783;48.824;8.662;2023-05-16T10:38:37;40.40;;;9.50;;
24650;SDS011;12783;48.824;8.662;2023-05-16T10:41:05;33.03;;;11.88;;
24650;SDS011;12783;48.824;8.662;2023-05-16T10:43:34;30.05;;;11.02;;
24650;SDS011;12783;48.824;8.662;2023-05-16T10:46:02;37.75;;;13.18;;
24650;SDS011;12783;48.824;8.662;2023-05-16T10:48:36;38.53;;;11.82;;
24650;SDS011;12783;48.824;8.662;2023-05-16T10:53:51;25.05;;;9.60;;
24650;SDS011;12783;48.824;8.662;2023-05-16T10:56:21;29.50;;;11.57;;
24650;SDS011;12783;48.824;8.662;2023-05-16T10:58:51;36.88;;;12.93;;
24650;SDS011;12783;48.824;8.662;2023-05-16T11:01:23;36.42;;;12.68;;
24650;SDS011;12783;48.824;8.662;2023-05-16T11:35:29;16.63;;;8.38;;
24650;SDS011;12783;48.824;8.662;2023-05-16T11:37:56;13.10;;;7.88;;
24650;SDS011;12783;48.824;8.662;2023-05-16T11:40:23;17.00;;;8.95;;
24650;SDS011;12783;48.824;8.662;2023-05-16T11:42:50;13.80;;;7.57;;
24650;SDS011;12783;48.824;8.662;2023-05-16T11:45:18;19.38;;;9.40;;
24650;SDS011;12783;48.824;8.662;2023-05-16T11:47:48;20.58;;;10.02;;
24650;SDS011;12783;48.824;8.662;2023-05-16T11:50:19;23.30;;;10.68;;
24650;SDS011;12783;48.824;8.662;2023-05-16T11:52:49;24.45;;;10.77;;
24650;SDS011;12783;48.824;8.662;2023-05-16T11:55:20;18.70;;;7.63;;
24650;SDS011;12783;48.824;8.662;2023-05-16T11:58:06;15.55;;;7.55;;
24650;SDS011;12783;48.824;8.662;2023-05-16T12:00:34;15.23;;;7.32;;
24650;SDS011;12783;48.824;8.662;2023-05-16T12:03:01;19.20;;;6.97;;
24650;SDS011;12783;48.824;8.662;2023-05-16T12:05:31;18.67;;;7.75;;
24650;SDS011;12783;48.824;8.662;2023-05-16T12:08:00;15.90;;;7.72;;
24650;SDS011;12783;48.824;8.662;2023-05-16T12:10:30;18.52;;;8.02;;
24650;SDS011;12783;48.824;8.662;2023-05-16T12:12:59;17.02;;;7.00;;
24650;SDS011;12783;48.824;8.662;2023-05-16T12:15:27;14.48;;;7.13;;
24650;SDS011;12783;48.824;8.662;2023-05-16T12:17:55;12.77;;;5.80;;
24650;SDS011;12783;48.824;8.662;2023-05-16T12:20:22;9.55;;;5.18;;
24650;SDS011;12783;48.824;8.662;2023-05-16T12:22:51;13.07;;;6.30;;
24650;SDS011;12783;48.824;8.662;2023-05-16T12:28:02;14.63;;;6.78;;
24650;SDS011;12783;48.824;8.662;2023-05-16T12:30:30;18.05;;;7.60;;
24650;SDS011;12783;48.824;8.662;2023-05-16T12:33:02;18.60;;;7.60;;
24650;SDS011;12783;48.824;8.662;2023-05-16T12:35:42;14.73;;;6.78;;
24650;SDS011;12783;48.824;8.662;2023-05-16T12:38:12;16.90;;;7.25;;
24650;SDS011;12783;48.824;8.662;2023-05-16T12:40:41;13.50;;;6.47;;
24650;SDS011;12783;48.824;8.662;2023-05-16T12:43:27;15.82;;;7.00;;
24650;SDS011;12783;48.824;8.662;2023-05-16T12:45:55;13.60;;;7.15;;
24650;SDS011;12783;48.824;8.662;2023-05-16T12:48:28;14.30;;;6.93;;
24650;SDS011;12783;48.824;8.662;2023-05-16T12:51:12;10.05;;;5.97;;
24650;SDS011;12783;48.824;8.662;2023-05-16T12:53:44;12.80;;;6.47;;
24650;SDS011;12783;48.824;8.662;2023-05-16T12:56:33;14.38;;;7.05;;
24650;SDS011;12783;48.824;8.662;2023-05-16T12:59:01;18.13;;;8.05;;
24650;SDS011;12783;48.824;8.662;2023-05-16T13:01:28;17.35;;;6.90;;
24650;SDS011;12783;48.824;8.662;2023-05-16T13:03:55;18.25;;;7.28;;
24650;SDS011;12783;48.824;8.662;2023-05-16T13:06:22;13.23;;;6.93;;
24650;SDS011;12783;48.824;8.662;2023-05-16T13:08:49;16.20;;;6.18;;
24650;SDS011;12783;48.824;8.662;2023-05-16T13:11:16;21.15;;;8.40;;
24650;SDS011;12783;48.824;8.662;2023-05-16T13:13:44;14.95;;;7.30;;
24650;SDS011;12783;48.824;8.662;2023-05-16T13:16:11;19.25;;;9.13;;
24650;SDS011;12783;48.824;8.662;2023-05-16T13:18:38;15.75;;;6.82;;
24650;SDS011;12783;48.824;8.662;2023-05-16T13:21:05;17.35;;;8.75;;
24650;SDS011;12783;48.824;8.662;2023-05-16T13:23:32;13.25;;;6.15;;
24650;SDS011;12783;48.824;8.662;2023-05-16T13:25:59;11.88;;;6.05;;
24650;SDS011;12783;48.824;8.662;2023-05-16T13:28:26;14.68;;;5.68;;
24650;SDS011;12783;48.824;8.662;2023-05-16T13:30:53;9.13;;;6.32;;
24650;SDS011;12783;48.824;8.662;2023-05-16T13:33:20;16.88;;;7.68;;
24650;SDS011;12783;48.824;8.662;2023-05-16T13:35:48;10.27;;;5.78;;
24650;SDS011;12783;48.824;8.662;2023-05-16T13:38:16;7.43;;;4.70;;
24650;SDS011;12783;48.824;8.662;2023-05-16T13:40:44;11.70;;;6.68;;
24650;SDS011;12783;48.824;8.662;2023-05-16T13:43:10;14.23;;;6.10;;
24650;SDS011;12783;48.824;8.662;2023-05-16T13:45:39;8.65;;;5.30;;
24650;SDS011;12783;48.824;8.662;2023-05-16T13:48:06;15.90;;;5.70;;
24650;SDS011;12783;48.824;8.662;2023-05-16T13:50:34;11.02;;;5.78;;
24650;SDS011;12783;48.824;8.662;2023-05-16T13:53:01;10.63;;;5.50;;
24650;SDS011;12783;48.824;8.662;2023-05-16T13:55:28;8.50;;;5.32;;
24650;SDS011;12783;48.824;8.662;2023-05-16T13:57:55;10.77;;;5.93;;
24650;SDS011;12783;48.824;8.662;2023-05-16T14:00:22;13.90;;;5.93;;
24650;SDS011;12783;48.824;8.662;2023-05-16T14:02:52;11.52;;;5.82;;
24650;SDS011;12783;48.824;8.662;2023-05-16T14:05:19;10.27;;;5.60;;
24650;SDS011;12783;48.824;8.662;2023-05-16T14:07:46;17.10;;;7.15;;
24650;SDS011;12783;48.824;8.662;2023-05-16T14:10:13;10.70;;;6.45;;
24650;SDS011;12783;48.824;8.662;2023-05-16T14:12:40;15.20;;;6.82;;
24650;SDS011;12783;48.824;8.662;2023-05-16T14:15:07;13.75;;;6.25;;
24650;SDS011;12783;48.824;8.662;2023-05-16T14:17:34;11.15;;;6.57;;
24650;SDS011;12783;48.824;8.662;2023-05-16T14:20:02;10.55;;;5.90;;
24650;SDS011;12783;48.824;8.662;2023-05-16T14:22:34;13.05;;;5.65;;
24650;SDS011;12783;48.824;8.662;2023-05-16T14:25:02;12.15;;;5.95;;
24650;SDS011;12783;48.824;8.662;2023-05-16T14:27:30;17.85;;;6.45;;
24650;SDS011;12783;48.824;8.662;2023-05-16T14:29:57;17.58;;;6.70;;
24650;SDS011;12783;48.824;8.662;2023-05-16T14:32:24;13.52;;;6.00;;
24650;SDS011;12783;48.824;8.662;2023-05-16T14:34:52;13.18;;;6.20;;
24650;SDS011;12783;48.824;8.662;2023-05-16T14:37:19;13.02;;;5.72;;
24650;SDS011;12783;48.824;8.662;2023-05-16T14:39:46;11.90;;;6.30;;
24650;SDS011;12783;48.824;8.662;2023-05-16T14:42:15;14.32;;;5.82;;
24650;SDS011;12783;48.824;8.662;2023-05-16T14:44:43;19.15;;;6.10;;
24650;SDS011;12783;48.824;8.662;2023-05-16T14:47:10;21.40;;;5.95;;
24650;SDS011;12783;48.824;8.662;2023-05-16T14:49:37;12.55;;;5.32;;
24650;SDS011;12783;48.824;8.662;2023-05-16T14:52:04;7.95;;;4.97;;
24650;SDS011;12783;48.824;8.662;2023-05-16T14:54:31;12.00;;;5.95;;
24650;SDS011;12783;48.824;8.662;2023-05-16T14:56:59;11.55;;;7.47;;
24650;SDS011;12783;48.824;8.662;2023-05-16T14:59:26;13.60;;;5.93;;
24650;SDS011;12783;48.824;8.662;2023-05-16T15:01:53;12.07;;;5.18;;
24650;SDS011;12783;48.824;8.662;2023-05-16T15:04:20;14.55;;;5.70;;
24650;SDS011;12783;48.824;8.662;2023-05-16T15:06:47;13.98;;;5.07;;
24650;SDS011;12783;48.824;8.662;2023-05-16T15:09:14;16.95;;;5.43;;
24650;SDS011;12783;48.824;8.662;2023-05-16T15:11:42;16.92;;;5.20;;